Time;durP1;ratioP1;P1;durP2;ratioP2;P2;SDS_P1;SDS_P2;PMS_P1;PMS_P2;Temp;Humidity;BMP_temperature;BMP_pressure;BME280_temperature;BME280_humidity;BME280_pressure;Samples;Min_cycle;Max_cycle;Signal;HPM_P1;HPM_P2
2023/04/08 00:00:29;;;;;;;;;14.00;12.00;25.90;29.70;;;;;;111456;1237;55183;-62
2023/04/08 00:03:15;;;;;;;;;10.50;9.50;25.80;29.70;;;;;;111353;1240;54103;-62
2023/04/08 00:05:42;;;;;;;;;11.33;10.00;25.80;29.80;;;;;;111432;1244;49223;-63
2023/04/08 00:08:09;;;;;;;;;13.25;11.00;25.70;30.10;;;;;;111454;1243;49713;-63
2023/04/08 00:10:36;;;;;;;;;14.75;13.75;25.60;29.80;;;;;;111473;1239;45748;-63
2023/04/08 00:13:03;;;;;;;;;13.00;10.75;25.70;30.00;;;;;;111425;1242;55678;-62
2023/04/08 00:15:30;;;;;;;;;11.00;10.00;25.60;29.90;;;;;;111394;1240;53336;-64
2023/04/08 00:17:57;;;;;;;;;10.75;9.75;25.60;29.90;;;;;;111437;1237;50498;-63
2023/04/08 00:20:24;;;;;;;;;11.75;10.75;25.60;30.00;;;;;;111371;1242;49148;-63
2023/04/08 00:22:50;;;;;;;;;12.00;10.50;25.70;30.10;;;;;;111443;1238;46161;-63
2023/04/08 00:25:17;;;;;;;;;11.75;10.75;25.70;30.20;;;;;;111392;1238;55753;-64
2023/04/08 00:27:44;;;;;;;;;12.00;11.00;25.70;30.40;;;;;;111080;1244;53709;-64
2023/04/08 00:30:11;;;;;;;;;11.25;10.50;25.70;30.40;;;;;;111423;1243;49772;-64
2023/04/08 00:32:38;;;;;;;;;10.75;10.00;25.80;30.20;;;;;;111468;1238;49023;-67
2023/04/08 00:35:06;;;;;;;;;12.00;11.00;25.80;30.30;;;;;;111474;1240;45273;-64
2023/04/08 00:37:33;;;;;;;;;10.00;9.00;25.90;30.30;;;;;;111418;1237;55214;-64
2023/04/08 00:40:00;;;;;;;;;11.00;10.33;25.90;30.30;;;;;;111430;1242;54947;-65
2023/04/08 00:42:29;;;;;;;;;10.25;9.25;26.00;30.30;;;;;;111495;1241;49822;-65
2023/04/08 00:44:56;;;;;;;;;11.25;10.25;26.00;30.30;;;;;;111468;1244;49174;-65
2023/04/08 00:47:24;;;;;;;;;12.00;11.00;26.10;30.40;;;;;;111394;1238;45692;-64
2023/04/08 00:49:51;;;;;;;;;11.75;9.25;26.20;30.40;;;;;;111418;1239;56418;-64
2023/04/08 00:52:20;;;;;;;;;10.00;9.00;26.30;30.40;;;;;;111233;1239;53910;-65
2023/04/08 00:54:47;;;;;;;;;10.33;9.33;26.30;30.40;;;;;;111383;1243;49482;-64
2023/04/08 00:57:14;;;;;;;;;11.50;10.50;26.40;30.40;;;;;;111279;1237;49027;-64
2023/04/08 00:59:41;;;;;;;;;12.25;10.00;26.50;30.40;;;;;;111179;1239;45728;-65
2023/04/08 01:02:23;;;;;;;;;12.00;10.75;26.50;30.60;;;;;;111401;1238;55950;-64
2023/04/08 01:04:59;;;;;;;;;9.25;8.50;26.60;30.40;;;;;;111437;1242;53681;-64
2023/04/08 01:07:51;;;;;;;;;12.33;11.67;26.70;30.40;;;;;;111453;1239;48894;-67
2023/04/08 01:10:44;;;;;;;;;13.75;11.25;26.70;30.50;;;;;;111533;1241;48818;-65
2023/04/08 01:13:13;;;;;;;;;11.00;10.00;26.80;30.50;;;;;;111242;1243;45596;-64
2023/04/08 01:15:41;;;;;;;;;10.00;9.00;26.90;30.20;;;;;;111465;1239;55046;-63
2023/04/08 01:18:12;;;;;;;;;16.75;10.00;27.00;30.40;;;;;;111311;1239;54163;-64
2023/04/08 01:20:41;;;;;;;;;12.67;10.67;27.00;30.10;;;;;;111394;1240;49923;-64
2023/04/08 01:23:50;;;;;;;;;12.25;10.75;27.00;30.10;;;;;;111209;1241;49822;-67
2023/04/08 01:26:24;;;;;;;;;10.75;9.75;27.10;30.00;;;;;;111254;1244;46026;-64
2023/04/08 01:28:54;;;;;;;;;10.75;9.75;27.10;30.00;;;;;;111190;1241;55941;-64
2023/04/08 01:31:23;;;;;;;;;13.00;10.00;27.10;30.00;;;;;;111215;1240;53303;-64
2023/04/08 01:33:51;;;;;;;;;10.00;9.00;27.10;30.00;;;;;;111251;1243;48963;-64
2023/04/08 01:36:19;;;;;;;;;9.50;8.50;27.10;29.90;;;;;;111217;1241;49134;-65
2023/04/08 01:38:47;;;;;;;;;11.00;10.00;27.20;29.90;;;;;;111416;1243;46186;-65
2023/04/08 01:41:15;;;;;;;;;12.25;10.00;27.10;29.90;;;;;;111306;1243;55281;-64
2023/04/08 01:43:42;;;;;;;;;11.00;10.00;27.10;29.90;;;;;;111308;1240;53681;-65
2023/04/08 01:46:11;;;;;;;;;15.50;12.25;27.10;29.90;;;;;;111457;1237;50026;-64
2023/04/08 01:48:39;;;;;;;;;12.00;10.00;27.10;29.80;;;;;;111406;1237;49626;-64
2023/04/08 01:51:06;;;;;;;;;10.75;9.75;27.10;29.80;;;;;;111433;1237;46171;-63
2023/04/08 01:53:33;;;;;;;;;10.00;9.00;27.00;29.80;;;;;;111423;1242;55727;-64
2023/04/08 01:56:11;;;;;;;;;11.00;9.75;27.00;29.80;;;;;;111405;1243;54153;-64
2023/04/08 01:58:42;;;;;;;;;11.25;10.50;27.00;29.80;;;;;;111253;1240;50263;-64
2023/04/08 02:01:11;;;;;;;;;10.75;9.25;26.90;29.70;;;;;;111435;1238;50764;-64
2023/04/08 02:03:41;;;;;;;;;12.00;10.75;26.90;29.70;;;;;;111207;1241;45739;-65
2023/04/08 02:06:08;;;;;;;;;12.00;11.00;26.90;29.80;;;;;;111496;1241;55011;-65
2023/04/08 02:08:37;;;;;;;;;12.33;10.33;26.80;29.70;;;;;;111400;1242;53193;-65
2023/04/08 02:11:05;;;;;;;;;13.00;10.00;26.80;29.70;;;;;;111388;1242;49813;-65
2023/04/08 02:13:32;;;;;;;;;11.50;10.50;26.70;29.60;;;;;;111327;1243;49204;-64
2023/04/08 02:16:05;;;;;;;;;12.75;9.75;26.70;29.60;;;;;;111153;1243;46137;-64
2023/04/08 02:18:34;;;;;;;;;10.00;9.00;26.60;29.60;;;;;;111215;1244;55770;-66
2023/04/08 02:21:12;;;;;;;;;12.75;11.00;26.60;29.60;;;;;;111411;1238;54779;-64
2023/04/08 02:23:40;;;;;;;;;11.00;10.00;26.50;29.60;;;;;;111426;1244;48922;-62
2023/04/08 02:26:15;;;;;;;;;11.00;10.00;26.50;29.60;;;;;;111434;1244;49110;-63
2023/04/08 02:28:43;;;;;;;;;11.00;10.00;26.50;29.80;;;;;;111339;1239;46212;-66
2023/04/08 02:31:12;;;;;;;;;10.33;8.00;26.40;29.60;;;;;;111410;1243;55658;-64
2023/04/08 02:33:40;;;;;;;;;11.50;10.25;26.30;29.60;;;;;;111320;1242;54298;-64
2023/04/08 02:36:08;;;;;;;;;11.75;10.75;26.30;29.60;;;;;;111581;1237;49126;-63
2023/04/08 02:38:35;;;;;;;;;14.00;13.00;26.30;29.60;;;;;;111356;1242;49814;-62
2023/04/08 02:41:02;;;;;;;;;12.75;11.75;26.20;29.80;;;;;;111431;1240;45571;-62
2023/04/08 02:43:32;;;;;;;;;13.25;10.25;26.10;30.00;;;;;;111364;1241;55683;-63
2023/04/08 02:46:02;;;;;;;;;10.75;9.50;26.10;29.60;;;;;;111153;1243;54255;-64
2023/04/08 02:48:30;;;;;;;;;12.00;10.75;26.00;29.60;;;;;;111293;1239;50495;-64
2023/04/08 02:50:57;;;;;;;;;10.25;9.50;26.00;29.60;;;;;;111377;1244;50145;-62
2023/04/08 02:53:24;;;;;;;;;11.00;10.00;25.90;29.60;;;;;;111327;1240;45689;-62
2023/04/08 02:55:51;;;;;;;;;11.00;9.67;25.90;29.60;;;;;;111258;1238;55498;-62
2023/04/08 02:58:18;;;;;;;;;11.75;10.75;25.90;29.60;;;;;;111304;1241;54126;-63
2023/04/08 03:00:45;;;;;;;;;10.00;9.00;25.80;30.00;;;;;;111194;1239;51576;-63
2023/04/08 03:03:12;;;;;;;;;10.00;9.00;25.80;29.60;;;;;;111252;1238;49992;-62
2023/04/08 03:05:39;;;;;;;;;12.75;11.75;25.80;29.80;;;;;;111216;1238;46787;-63
2023/04/08 03:08:06;;;;;;;;;11.75;10.50;25.80;29.70;;;;;;111180;1243;55226;-62
2023/04/08 03:10:33;;;;;;;;;14.00;11.75;25.80;29.90;;;;;;111275;1243;53323;-62
2023/04/08 03:13:00;;;;;;;;;13.00;12.33;25.90;29.80;;;;;;111279;1243;49336;-65
2023/04/08 03:15:27;;;;;;;;;13.75;11.75;25.90;29.90;;;;;;111271;1243;51016;-62
2023/04/08 03:17:54;;;;;;;;;12.67;11.67;25.90;29.80;;;;;;111274;1243;45437;-63
2023/04/08 03:20:21;;;;;;;;;12.00;10.50;25.90;29.80;;;;;;111282;1242;55870;-63
2023/04/08 03:22:48;;;;;;;;;10.25;9.25;25.90;29.90;;;;;;111300;1242;53999;-62
2023/04/08 03:25:15;;;;;;;;;10.50;9.50;26.00;30.00;;;;;;111307;1238;50827;-62
2023/04/08 03:27:42;;;;;;;;;10.50;9.50;26.00;29.90;;;;;;111339;1237;50555;-62
2023/04/08 03:30:09;;;;;;;;;13.67;11.00;26.10;29.90;;;;;;111412;1238;45724;-63
2023/04/08 03:32:36;;;;;;;;;10.50;9.25;26.20;30.00;;;;;;111373;1237;55117;-63
2023/04/08 03:35:05;;;;;;;;;14.00;10.33;26.20;30.00;;;;;;111287;1237;54231;-64
2023/04/08 03:37:32;;;;;;;;;10.25;9.00;26.30;30.00;;;;;;111274;1238;48961;-64
2023/04/08 03:39:59;;;;;;;;;9.75;8.75;26.40;30.00;;;;;;111241;1243;49498;-65
2023/04/08 03:42:26;;;;;;;;;12.33;10.00;26.50;30.00;;;;;;111269;1241;46407;-63
2023/04/08 03:44:54;;;;;;;;;12.50;10.75;26.50;30.00;;;;;;111249;1243;55875;-64
2023/04/08 03:47:21;;;;;;;;;11.75;9.50;26.60;30.00;;;;;;111239;1243;54606;-61
2023/04/08 03:49:52;;;;;;;;;10.50;9.25;26.60;29.90;;;;;;111248;1238;49221;-63
2023/04/08 03:52:19;;;;;;;;;12.00;11.00;26.70;29.90;;;;;;111241;1243;50374;-63
2023/04/08 03:54:46;;;;;;;;;13.75;10.00;26.70;29.90;;;;;;111262;1240;45568;-64
2023/04/08 03:57:13;;;;;;;;;9.00;8.00;26.70;29.80;;;;;;111367;1240;56454;-64
2023/04/08 03:59:40;;;;;;;;;10.00;9.00;26.80;30.00;;;;;;111315;1238;54232;-61
2023/04/08 04:02:07;;;;;;;;;10.00;9.00;26.80;29.80;;;;;;111413;1239;48923;-61
2023/04/08 04:04:35;;;;;;;;;12.00;11.00;26.80;29.80;;;;;;111266;1238;48809;-61
2023/04/08 04:07:02;;;;;;;;;11.00;10.00;26.90;29.70;;;;;;111399;1237;45587;-62
2023/04/08 04:09:29;;;;;;;;;13.00;12.00;26.90;29.70;;;;;;111421;1243;56392;-62
2023/04/08 04:11:56;;;;;;;;;12.75;11.75;26.90;29.70;;;;;;111233;1242;54998;-63
2023/04/08 04:14:23;;;;;;;;;11.50;10.00;26.90;29.70;;;;;;111280;1238;49226;-62
2023/04/08 04:16:50;;;;;;;;;10.00;9.00;26.90;29.80;;;;;;111236;1243;49076;-63
2023/04/08 04:19:17;;;;;;;;;10.00;9.00;26.90;29.60;;;;;;111278;1243;46121;-64
2023/04/08 04:21:45;;;;;;;;;12.00;9.50;26.80;29.60;;;;;;111219;1243;55294;-62
2023/04/08 04:24:12;;;;;;;;;10.75;9.75;26.90;29.60;;;;;;111574;1237;53914;-62
2023/04/08 04:26:40;;;;;;;;;10.67;10.00;26.80;29.50;;;;;;111475;1238;49033;-62
2023/04/08 04:29:07;;;;;;;;;10.00;9.00;26.80;29.50;;;;;;111366;1238;49507;-62
2023/04/08 04:31:34;;;;;;;;;12.75;11.75;26.80;29.70;;;;;;111107;1239;45954;-62
2023/04/08 04:34:01;;;;;;;;;10.00;9.00;26.70;29.50;;;;;;111276;1244;56228;-61
2023/04/08 04:36:28;;;;;;;;;10.00;9.00;26.70;29.60;;;;;;111332;1237;54782;-61
2023/04/08 04:38:55;;;;;;;;;12.25;11.00;26.80;29.90;;;;;;111295;1243;49163;-61
2023/04/08 04:41:22;;;;;;;;;11.75;10.75;26.70;29.60;;;;;;111368;1243;49902;-62
2023/04/08 04:43:49;;;;;;;;;11.00;10.00;26.70;29.50;;;;;;111336;1243;45526;-64
2023/04/08 04:46:16;;;;;;;;;11.75;10.75;26.60;29.80;;;;;;111490;1238;55676;-62
2023/04/08 04:48:43;;;;;;;;;11.75;9.25;26.60;29.40;;;;;;111391;1242;54759;-63
2023/04/08 04:51:10;;;;;;;;;14.75;12.50;26.50;29.40;;;;;;111232;1240;48845;-62
2023/04/08 04:53:37;;;;;;;;;11.00;10.00;26.50;29.50;;;;;;111545;1239;48906;-61
2023/04/08 04:56:04;;;;;;;;;10.25;9.25;26.40;29.50;;;;;;111410;1239;46718;-62
2023/04/08 04:58:31;;;;;;;;;11.75;10.50;26.40;29.40;;;;;;111474;1243;55814;-62
2023/04/08 05:00:58;;;;;;;;;13.33;12.33;26.30;30.00;;;;;;111413;1237;53526;-62
2023/04/08 05:03:25;;;;;;;;;12.75;11.75;26.30;31.30;;;;;;111223;1241;49487;-63
2023/04/08 05:05:53;;;;;;;;;13.75;12.00;26.30;31.40;;;;;;111306;1237;49030;-62
2023/04/08 05:08:20;;;;;;;;;13.75;10.75;26.30;31.00;;;;;;111254;1238;46222;-63
2023/04/08 05:10:49;;;;;;;;;13.50;12.25;26.20;30.60;;;;;;111164;1237;55931;-63
2023/04/08 05:13:17;;;;;;;;;12.75;11.00;26.20;30.70;;;;;;111076;1239;53908;-64
2023/04/08 05:15:44;;;;;;;;;13.25;12.25;26.20;30.90;;;;;;111228;1242;50030;-68
2023/04/08 05:18:11;;;;;;;;;15.00;13.75;26.10;30.50;;;;;;111350;1242;50726;-65
2023/04/08 05:20:38;;;;;;;;;12.75;11.75;26.10;30.90;;;;;;111428;1237;45782;-63
2023/04/08 05:23:06;;;;;;;;;13.75;12.75;26.00;31.30;;;;;;111474;1243;55596;-62
2023/04/08 05:25:33;;;;;;;;;15.00;13.00;25.90;31.30;;;;;;111391;1242;54956;-61
2023/04/08 05:28:01;;;;;;;;;14.67;13.67;25.80;31.40;;;;;;111454;1238;50208;-65
2023/04/08 05:30:28;;;;;;;;;17.75;16.25;25.80;32.10;;;;;;111228;1240;49722;-67
2023/04/08 05:32:55;;;;;;;;;15.67;14.33;25.70;32.40;;;;;;111506;1238;45406;-67
2023/04/08 05:35:22;;;;;;;;;16.00;13.00;25.60;32.70;;;;;;111403;1237;55915;-69
2023/04/08 05:37:49;;;;;;;;;14.00;13.00;25.50;32.90;;;;;;111495;1237;53783;-68
2023/04/08 05:40:16;;;;;;;;;14.75;13.75;25.50;33.10;;;;;;111527;1237;49337;-66
2023/04/08 05:42:43;;;;;;;;;20.00;19.00;25.40;33.30;;;;;;111590;1242;50421;-69
2023/04/08 05:45:10;;;;;;;;;19.50;18.25;25.30;31.90;;;;;;111566;1239;45788;-67
2023/04/08 05:47:37;;;;;;;;;17.67;16.67;25.20;32.70;;;;;;111391;1237;55824;-68
2023/04/08 05:50:05;;;;;;;;;16.75;16.00;25.10;33.70;;;;;;111370;1239;53724;-64
2023/04/08 05:52:32;;;;;;;;;15.75;14.75;25.00;33.90;;;;;;111472;1238;49002;-65
2023/04/08 05:54:59;;;;;;;;;15.75;14.75;25.00;33.90;;;;;;111511;1238;49719;-66
2023/04/08 05:57:26;;;;;;;;;18.25;16.25;25.00;34.00;;;;;;111540;1243;46902;-67
2023/04/08 05:59:53;;;;;;;;;17.25;16.00;24.90;34.20;;;;;;111540;1243;55225;-68
2023/04/08 06:02:20;;;;;;;;;16.75;15.50;24.90;35.40;;;;;;111366;1237;54737;-67
2023/04/08 06:04:46;;;;;;;;;17.67;16.33;24.90;34.90;;;;;;111221;1238;49372;-63
2023/04/08 06:07:14;;;;;;;;;17.00;16.00;24.90;35.50;;;;;;111222;1243;50803;-62
2023/04/08 06:09:41;;;;;;;;;17.00;15.75;24.90;35.00;;;;;;111278;1240;45963;-61
2023/04/08 06:12:08;;;;;;;;;19.67;18.67;24.90;34.70;;;;;;111397;1241;55471;-62
2023/04/08 06:14:35;;;;;;;;;19.50;14.50;24.90;34.80;;;;;;111147;1241;53489;-63
2023/04/08 06:17:01;;;;;;;;;18.50;15.75;24.90;34.30;;;;;;111261;1240;50455;-62
2023/04/08 06:19:28;;;;;;;;;17.50;16.25;24.90;34.20;;;;;;111398;1241;49702;-62
2023/04/08 06:21:58;;;;;;;;;15.50;14.50;24.80;34.20;;;;;;111182;1244;46539;-62
2023/04/08 06:24:26;;;;;;;;;17.00;14.33;24.80;33.70;;;;;;111080;1244;55409;-61
2023/04/08 06:26:53;;;;;;;;;16.75;15.25;24.80;33.90;;;;;;111112;1240;53997;-63
2023/04/08 06:29:21;;;;;;;;;16.25;15.25;24.80;33.40;;;;;;111067;1244;49897;-67
2023/04/08 06:31:48;;;;;;;;;14.75;13.50;24.70;33.30;;;;;;110808;1241;49310;-61
2023/04/08 06:34:15;;;;;;;;;16.00;15.00;24.70;33.10;;;;;;111109;1244;45822;-62
2023/04/08 06:36:43;;;;;;;;;15.00;14.00;24.70;33.50;;;;;;111098;1244;55491;-63
2023/04/08 06:39:10;;;;;;;;;16.00;15.00;24.70;33.40;;;;;;111239;1244;54592;-63
2023/04/08 06:41:36;;;;;;;;;17.75;15.00;24.70;33.70;;;;;;111138;1244;49415;-65
2023/04/08 06:44:04;;;;;;;;;17.75;13.50;24.70;34.00;;;;;;111082;1241;48676;-65
2023/04/08 06:46:31;;;;;;;;;19.00;15.00;24.80;34.20;;;;;;111085;1244;45406;-67
2023/04/08 06:48:58;;;;;;;;;17.75;14.00;24.90;33.90;;;;;;111078;1240;55685;-71
2023/04/08 06:51:26;;;;;;;;;18.25;15.75;24.90;33.80;;;;;;111076;1240;54227;-70
2023/04/08 06:53:53;;;;;;;;;15.67;13.67;25.00;33.70;;;;;;111065;1241;49285;-70
2023/04/08 06:56:21;;;;;;;;;18.00;16.00;25.10;33.70;;;;;;111210;1241;50314;-68
2023/04/08 06:58:49;;;;;;;;;15.25;14.00;25.10;33.60;;;;;;111218;1241;45868;-69
2023/04/08 07:01:16;;;;;;;;;17.33;16.33;25.20;33.60;;;;;;110969;1241;56312;-69
2023/04/08 07:03:43;;;;;;;;;16.50;15.50;25.20;33.40;;;;;;111119;1244;53326;-69
2023/04/08 12:25:52;;;;;;;;;28.33;24.33;27.30;34.70;;;;;;101815;1254;1027113;-60
2023/04/08 12:28:19;;;;;;;;;24.00;23.00;27.40;34.50;;;;;;110216;1250;49487;-62
2023/04/08 12:30:46;;;;;;;;;25.33;23.67;27.40;34.50;;;;;;110329;1254;49345;-62
2023/04/08 12:33:13;;;;;;;;;28.00;23.33;27.20;34.20;;;;;;110220;1250;45601;-62
2023/04/08 12:35:40;;;;;;;;;27.00;24.00;27.10;34.80;;;;;;110133;1250;55780;-61
2023/04/08 12:38:07;;;;;;;;;27.00;25.50;26.90;35.20;;;;;;110277;1250;53594;-61
2023/04/08 12:40:34;;;;;;;;;24.00;22.00;26.90;35.20;;;;;;110225;1254;49529;-60
2023/04/08 12:43:01;;;;;;;;;27.00;23.00;26.80;35.50;;;;;;110225;1254;50630;-63
2023/04/08 12:45:28;;;;;;;;;27.50;21.00;26.70;35.30;;;;;;110196;1250;45989;-62
2023/04/08 12:47:54;;;;;;;;;24.00;22.00;26.70;35.60;;;;;;110083;1250;55411;-60
2023/04/08 12:50:22;;;;;;;;;32.00;23.00;26.70;35.80;;;;;;110115;1250;53553;-58
2023/04/08 12:52:49;;;;;;;;;22.00;20.00;26.70;36.10;;;;;;110201;1250;49558;-60
2023/04/08 12:55:17;;;;;;;;;29.67;24.33;26.70;36.00;;;;;;110540;1250;49285;-60
2023/04/08 12:57:44;;;;;;;;;26.00;22.00;26.80;36.70;;;;;;110349;1254;45420;-60
2023/04/08 13:00:12;;;;;;;;;24.50;22.50;26.80;36.10;;;;;;110149;1250;55575;-61
2023/04/08 13:02:40;;;;;;;;;24.00;22.00;26.80;36.20;;;;;;110398;1254;54436;-61
2023/04/08 13:05:08;;;;;;;;;24.00;23.00;26.80;36.20;;;;;;110331;1250;49156;-61
2023/04/08 13:07:35;;;;;;;;;32.50;25.00;26.80;36.30;;;;;;110179;1254;49508;-61
2023/04/08 13:10:03;;;;;;;;;26.00;22.67;26.90;36.10;;;;;;110186;1250;45213;-60
2023/04/08 13:12:31;;;;;;;;;30.00;26.50;26.90;36.00;;;;;;110530;1254;55875;-61
2023/04/08 13:14:59;;;;;;;;;27.00;21.00;26.90;35.50;;;;;;110268;1250;53893;-60
2023/04/08 13:17:26;;;;;;;;;20.00;19.00;27.00;36.50;;;;;;110224;1250;49195;-60
2023/04/08 13:19:53;;;;;;;;;25.00;21.00;27.00;35.90;;;;;;110236;1254;49849;-61
2023/04/08 13:22:20;;;;;;;;;21.50;19.00;27.00;35.80;;;;;;110454;1254;46110;-61
2023/04/08 13:24:47;;;;;;;;;23.00;20.50;27.00;35.80;;;;;;110303;1250;55320;-60
2023/04/08 13:27:14;;;;;;;;;24.00;21.00;27.00;36.00;;;;;;110225;1250;53591;-61
2023/04/08 13:29:41;;;;;;;;;20.00;19.00;27.00;35.80;;;;;;110212;1250;49970;-61
2023/04/08 13:32:08;;;;;;;;;21.00;20.00;27.00;35.70;;;;;;110288;1254;49661;-61
2023/04/08 13:34:35;;;;;;;;;21.00;20.50;26.90;35.20;;;;;;110252;1250;46449;-61
2023/04/08 13:37:03;;;;;;;;;28.67;23.00;26.90;35.60;;;;;;110244;1251;56495;-61
2023/04/08 13:39:30;;;;;;;;;18.67;16.00;26.90;35.50;;;;;;110239;1254;53740;-60
2023/04/08 13:41:57;;;;;;;;;23.00;19.50;26.90;35.50;;;;;;110191;1250;48990;-64
2023/04/08 13:44:24;;;;;;;;;20.50;19.50;26.90;35.70;;;;;;110283;1254;48931;-60
2023/04/08 13:46:51;;;;;;;;;23.00;20.00;26.90;35.40;;;;;;110357;1250;45696;-60
2023/04/08 13:49:19;;;;;;;;;20.00;19.00;26.80;35.30;;;;;;110388;1250;55584;-61
2023/04/08 13:51:46;;;;;;;;;20.00;17.67;26.90;35.30;;;;;;110202;1254;53502;-60
2023/04/08 13:54:13;;;;;;;;;18.00;17.00;26.80;35.20;;;;;;110196;1250;50409;-61
2023/04/08 13:56:40;;;;;;;;;24.75;21.00;26.80;35.20;;;;;;110592;1250;49643;-61
2023/04/08 13:59:09;;;;;;;;;21.00;16.50;26.80;35.20;;;;;;110257;1254;46163;-60
2023/04/08 14:01:36;;;;;;;;;23.00;20.00;26.80;35.10;;;;;;110239;1250;55530;-60
2023/04/08 14:04:03;;;;;;;;;22.00;19.00;26.80;35.10;;;;;;110327;1251;53933;-60
2023/04/08 14:06:30;;;;;;;;;22.00;21.00;26.70;35.00;;;;;;110254;1254;49416;-60
2023/04/08 14:08:57;;;;;;;;;20.50;17.50;26.70;35.10;;;;;;110174;1254;49848;-61
2023/04/08 14:11:24;;;;;;;;;20.00;17.50;26.70;34.60;;;;;;110309;1250;45908;-60
2023/04/08 14:13:51;;;;;;;;;22.00;19.00;26.60;35.00;;;;;;110228;1251;56077;-59
2023/04/08 14:16:18;;;;;;;;;23.33;19.00;26.60;35.00;;;;;;110288;1250;53405;-62
2023/04/08 14:18:45;;;;;;;;;19.75;17.00;26.50;34.90;;;;;;110211;1254;49817;-61
2023/04/08 14:21:14;;;;;;;;;19.00;18.00;26.50;34.80;;;;;;110304;1254;48945;-60
2023/04/08 14:23:41;;;;;;;;;17.33;16.00;26.50;34.80;;;;;;110253;1254;45374;-59
2023/04/08 14:26:08;;;;;;;;;21.00;17.00;26.50;35.00;;;;;;110313;1254;55708;-60
2023/04/08 14:28:35;;;;;;;;;21.33;18.33;26.40;34.90;;;;;;110285;1254;53797;-61
2023/04/08 14:31:03;;;;;;;;;19.00;17.00;26.40;34.70;;;;;;110205;1254;49385;-60
2023/04/08 14:33:31;;;;;;;;;22.00;19.50;26.30;34.60;;;;;;110214;1254;50452;-60
2023/04/08 14:35:58;;;;;;;;;17.00;16.00;26.30;34.60;;;;;;110282;1250;45667;-59
2023/04/08 14:38:25;;;;;;;;;22.00;17.00;26.20;34.60;;;;;;110201;1254;55787;-60
2023/04/08 14:40:53;;;;;;;;;17.67;16.00;26.20;34.50;;;;;;110251;1250;54686;-60
2023/04/08 14:43:20;;;;;;;;;15.67;15.00;26.20;34.50;;;;;;110344;1251;49205;-60
2023/04/08 14:45:49;;;;;;;;;21.50;19.00;26.10;34.60;;;;;;110254;1254;49058;-61
2023/04/08 14:48:16;;;;;;;;;20.00;18.00;26.00;34.40;;;;;;110258;1250;46127;-61
2023/04/08 14:50:44;;;;;;;;;17.00;15.00;26.00;34.40;;;;;;110315;1251;56413;-60
2023/04/08 14:53:11;;;;;;;;;18.00;17.00;26.00;34.40;;;;;;110308;1254;53813;-64
2023/04/08 14:55:38;;;;;;;;;18.50;16.00;25.90;34.40;;;;;;110263;1254;49798;-61
2023/04/08 14:58:05;;;;;;;;;18.00;17.00;25.90;34.50;;;;;;110261;1250;49798;-60
2023/04/08 15:00:32;;;;;;;;;16.00;15.00;25.80;34.30;;;;;;110166;1250;46208;-59
2023/04/08 15:02:59;;;;;;;;;23.50;22.00;25.80;35.10;;;;;;110215;1254;56383;-58
2023/04/08 15:05:26;;;;;;;;;25.00;24.00;25.70;35.80;;;;;;110346;1254;54740;-59
2023/04/08 15:07:53;;;;;;;;;28.50;26.50;25.60;36.30;;;;;;110269;1254;49724;-57
2023/04/08 15:10:20;;;;;;;;;23.00;22.00;25.60;36.40;;;;;;110296;1254;49969;-60
2023/04/08 15:12:47;;;;;;;;;25.00;22.00;25.60;36.60;;;;;;110159;1253;46117;-59
2023/04/08 15:15:14;;;;;;;;;25.00;24.00;25.50;36.60;;;;;;110042;1251;55711;-57
2023/04/08 15:17:41;;;;;;;;;34.50;26.00;25.50;36.80;;;;;;110215;1250;55021;-59
2023/04/08 15:20:09;;;;;;;;;27.00;24.00;25.40;37.00;;;;;;110347;1250;49522;-60
2023/04/08 15:22:36;;;;;;;;;29.00;24.50;25.40;37.50;;;;;;110201;1254;50655;-61
2023/04/08 15:25:04;;;;;;;;;20.00;19.00;25.40;37.20;;;;;;110196;1254;45905;-60
2023/04/08 15:27:31;;;;;;;;;23.67;21.00;25.30;37.00;;;;;;110292;1254;55806;-61
2023/04/08 15:29:58;;;;;;;;;26.00;22.00;25.30;37.30;;;;;;110181;1250;54231;-60
2023/04/08 15:32:25;;;;;;;;;22.00;21.00;25.30;36.70;;;;;;110087;1250;50011;-59
2023/04/08 15:34:52;;;;;;;;;29.00;23.00;25.20;37.10;;;;;;110002;1250;49159;-59
2023/04/08 15:37:19;;;;;;;;;28.00;22.00;25.20;37.20;;;;;;110064;1250;45645;-60
2023/04/08 15:39:45;;;;;;;;;21.50;19.50;25.20;36.90;;;;;;110106;1254;56312;-58
2023/04/08 15:42:12;;;;;;;;;22.67;20.67;25.20;36.80;;;;;;110153;1254;53900;-59
2023/04/08 15:44:39;;;;;;;;;24.50;23.00;25.20;36.70;;;;;;110026;1250;50723;-59
2023/04/08 15:47:07;;;;;;;;;27.33;23.00;25.10;36.60;;;;;;110138;1250;49462;-60
2023/04/08 15:49:34;;;;;;;;;23.50;20.00;25.10;36.70;;;;;;110225;1250;46688;-58
2023/04/08 15:52:01;;;;;;;;;25.00;22.50;25.10;36.40;;;;;;110172;1254;55391;-58
2023/04/08 15:54:29;;;;;;;;;19.00;18.00;25.00;36.40;;;;;;110131;1250;54558;-58
2023/04/08 15:56:56;;;;;;;;;22.50;20.00;25.00;36.30;;;;;;110153;1250;49621;-60
2023/04/08 15:59:23;;;;;;;;;30.00;24.00;24.90;36.50;;;;;;110122;1254;49886;-59
2023/04/08 16:01:50;;;;;;;;;25.00;19.00;24.90;36.20;;;;;;110198;1250;46110;-59
2023/04/08 16:04:17;;;;;;;;;25.00;17.50;24.80;36.10;;;;;;110176;1250;55375;-60
2023/04/08 16:06:45;;;;;;;;;22.00;21.00;24.70;36.10;;;;;;110081;1250;53573;-59
2023/04/08 16:09:12;;;;;;;;;25.00;21.50;24.70;36.50;;;;;;110209;1254;48938;-60
2023/04/08 16:11:40;;;;;;;;;23.00;20.00;24.70;36.00;;;;;;110199;1250;49873;-59
2023/04/08 16:14:07;;;;;;;;;23.00;20.50;24.60;35.90;;;;;;110226;1250;46044;-60
2023/04/08 16:16:36;;;;;;;;;21.00;20.00;24.50;35.90;;;;;;110558;1250;55330;-60
2023/04/08 16:19:04;;;;;;;;;23.00;20.00;24.50;36.00;;;;;;110279;1250;53494;-59
2023/04/08 16:21:31;;;;;;;;;25.00;20.33;24.50;36.10;;;;;;110219;1254;49371;-59
2023/04/08 16:23:58;;;;;;;;;22.00;21.00;24.40;36.10;;;;;;110182;1254;49857;-58
2023/04/08 16:26:26;;;;;;;;;26.00;21.00;24.40;36.20;;;;;;110143;1250;46929;-59
2023/04/08 16:28:53;;;;;;;;;23.67;22.67;24.30;36.20;;;;;;110268;1254;56667;-60
2023/04/08 16:31:20;;;;;;;;;22.00;20.00;24.30;36.30;;;;;;110236;1254;54086;-58
2023/04/08 16:33:47;;;;;;;;;24.00;21.50;24.20;36.30;;;;;;110224;1250;49850;-59
2023/04/08 16:36:14;;;;;;;;;28.00;20.00;24.10;36.40;;;;;;110260;1250;50749;-60
2023/04/08 16:38:41;;;;;;;;;24.33;21.33;24.10;36.50;;;;;;110237;1254;46006;-59
2023/04/08 16:41:08;;;;;;;;;26.50;21.75;24.10;36.50;;;;;;110153;1252;56487;-59
2023/04/08 16:43:36;;;;;;;;;23.00;22.00;24.10;36.60;;;;;;110194;1254;54022;-60
2023/04/08 16:46:15;;;;;;;;;24.00;23.00;24.00;36.50;;;;;;110694;1254;49497;-59
2023/04/08 16:48:43;;;;;;;;;24.00;22.00;24.00;36.60;;;;;;110236;1251;49186;-59
2023/04/08 16:51:10;;;;;;;;;25.00;20.00;24.00;36.70;;;;;;110241;1254;45445;-59
2023/04/08 16:53:37;;;;;;;;;30.00;25.50;24.00;36.70;;;;;;110253;1250;55890;-59
2023/04/08 16:56:11;;;;;;;;;28.00;23.50;24.00;36.80;;;;;;110255;1250;54137;-59
2023/04/08 16:58:38;;;;;;;;;23.00;22.00;24.00;36.80;;;;;;110254;1254;49908;-59
2023/04/08 17:01:07;;;;;;;;;25.00;20.00;24.10;36.80;;;;;;110212;1254;49645;-60
2023/04/08 17:03:35;;;;;;;;;26.50;21.25;24.20;36.80;;;;;;110240;1254;45344;-60
2023/04/08 17:06:10;;;;;;;;;24.00;21.00;24.20;36.70;;;;;;110266;1254;55617;-59
2023/04/08 17:08:37;;;;;;;;;25.00;21.00;24.30;37.30;;;;;;110217;1251;54285;-60
2023/04/08 17:11:09;;;;;;;;;23.50;20.00;24.30;36.70;;;;;;110159;1252;49912;-59
2023/04/08 17:13:40;;;;;;;;;24.50;20.50;24.40;36.70;;;;;;110213;1250;49203;-60
2023/04/08 17:16:11;;;;;;;;;26.00;24.00;24.50;36.80;;;;;;110338;1250;46112;-63
2023/04/08 17:18:38;;;;;;;;;23.50;19.00;24.50;38.00;;;;;;110284;1254;56794;-67
2023/04/08 17:21:06;;;;;;;;;22.67;20.33;24.60;38.70;;;;;;110438;1254;53438;-70
2023/04/08 17:23:33;;;;;;;;;28.50;21.00;24.70;39.80;;;;;;110477;1254;49853;-68
2023/04/08 17:26:08;;;;;;;;;29.00;21.67;24.70;40.50;;;;;;110083;1253;49775;-67
2023/04/08 17:28:35;;;;;;;;;31.50;23.00;24.80;41.30;;;;;;110214;1254;46025;-66
2023/04/08 17:31:02;;;;;;;;;24.00;22.00;24.90;41.40;;;;;;110178;1254;56631;-67
2023/04/08 17:33:29;;;;;;;;;28.00;21.00;25.00;41.20;;;;;;110251;1254;53817;-67
2023/04/08 17:35:56;;;;;;;;;22.00;20.67;25.10;40.20;;;;;;110566;1254;50087;-66
2023/04/08 17:38:23;;;;;;;;;26.00;24.00;25.20;39.90;;;;;;110218;1254;49743;-69
2023/04/08 17:40:50;;;;;;;;;31.33;27.00;25.20;39.80;;;;;;110220;1250;45616;-67